createdAt,value
2016-10-17T00:08:17.739Z,23.6
2016-10-17T00:19:17.353Z,23.3
2016-10-17T00:30:17.348Z,24.2
2016-10-17T00:41:16.816Z,23.8
2016-10-17T00:52:17.566Z,24.1
2016-10-17T01:03:17.304Z,23.2
2016-10-17T01:14:17.214Z,23.9
2016-10-17T01:25:18.008Z,23.7
2016-10-17T01:36:17.353Z,23.9
2016-10-17T01:47:17.535Z,24
2016-10-17T01:58:17.564Z,24
2016-10-17T02:09:17.854Z,24
2016-10-17T02:20:18.147Z,23.7
2016-10-17T02:31:17.678Z,24.2
2016-10-17T02:42:17.624Z,24.1
2016-10-17T02:53:17.685Z,24.2
2016-10-17T03:04:18.005Z,24
2016-10-17T03:15:17.979Z,23.7
2016-10-17T03:26:17.059Z,24
2016-10-17T03:37:16.785Z,23.9
2016-10-17T03:48:17.570Z,24.1
2016-10-17T03:59:18.190Z,23.3
2016-10-17T04:10:17.975Z,23.6
2016-10-17T04:21:17.020Z,23.6
2016-10-17T04:32:17.115Z,23.7
2016-10-17T04:43:17.459Z,24
2016-10-17T04:54:17.577Z,24
2016-10-17T05:05:17.498Z,23.6
2016-10-17T05:16:16.877Z,24.3
2016-10-17T05:27:16.866Z,24
2016-10-17T05:38:17.570Z,23.9
2016-10-17T05:49:17.556Z,24.4
2016-10-17T06:00:17.640Z,24.3
2016-10-17T06:11:16.900Z,24.4
2016-10-17T06:22:17.638Z,24.3
2016-10-17T06:33:17.317Z,24.5
2016-10-17T06:44:17.861Z,24.5
2016-10-17T06:55:16.997Z,24.5
2016-10-17T07:06:17.800Z,24.2
2016-10-17T07:17:17.243Z,24.7
2016-10-17T07:28:17.747Z,25.3
2016-10-17T07:39:17.653Z,26.3
2016-10-17T07:50:17.752Z,26
2016-10-17T08:01:17.092Z,26.1
2016-10-17T08:12:17.811Z,26.5
2016-10-17T08:23:17.852Z,26.8
2016-10-17T08:34:17.344Z,27
2016-10-17T08:45:17.365Z,27.1
2016-10-17T08:56:17.765Z,27.9
2016-10-17T09:07:17.876Z,28.1
2016-10-17T09:18:18.698Z,28.4
2016-10-17T09:29:17.916Z,28.9
2016-10-17T09:40:18.136Z,28.6
2016-10-17T09:51:17.459Z,28.2
2016-10-17T10:02:18.420Z,29.4
2016-10-17T10:13:17.240Z,30.1
2016-10-17T10:24:17.517Z,29.6
2016-10-17T10:35:17.568Z,30.2
2016-10-17T10:46:17.521Z,30
2016-10-17T10:57:17.673Z,30.3
2016-10-17T11:08:18.154Z,29.8
2016-10-17T11:19:17.354Z,30
2016-10-17T11:30:19.067Z,30.4
2016-10-17T11:41:17.406Z,30.3
2016-10-17T11:52:17.403Z,29.9
2016-10-17T12:03:17.354Z,29.6
2016-10-17T12:14:17.478Z,30.1
2016-10-17T12:25:17.091Z,29.6
2016-10-17T12:36:17.789Z,29.2
2016-10-17T12:47:16.796Z,29.5
2016-10-17T12:58:17.147Z,29.7
2016-10-17T13:09:17.157Z,29.8
2016-10-17T13:20:17.887Z,29.3
2016-10-17T13:31:17.422Z,29.7
2016-10-17T13:42:17.540Z,29.6
2016-10-17T13:53:18.222Z,29.4
2016-10-17T14:04:18.282Z,29.4
2016-10-17T14:15:17.183Z,29.2
2016-10-17T14:26:17.271Z,29.3
2016-10-17T14:37:17.484Z,29.8
2016-10-17T14:48:17.916Z,29.4
2016-10-17T14:59:17.295Z,29
2016-10-17T15:10:17.540Z,29.3
2016-10-17T15:21:17.342Z,29.1
2016-10-17T15:32:18.039Z,28.8
2016-10-17T15:43:18.055Z,28.5
2016-10-17T15:54:17.797Z,28.7
2016-10-17T16:05:17.029Z,28.2
2016-10-17T16:16:17.055Z,28.5
2016-10-17T16:27:16.721Z,27.8
2016-10-17T16:38:17.771Z,28.1
2016-10-17T16:49:17.111Z,27.6
2016-10-17T17:00:18.021Z,27.6
2016-10-17T17:11:17.122Z,27.2
2016-10-17T17:22:17.477Z,27.1
2016-10-17T17:33:17.480Z,26.9
2016-10-17T17:44:18.203Z,27.4
2016-10-17T17:55:17.193Z,27
2016-10-17T18:06:16.871Z,27.2
2016-10-17T18:17:17.568Z,27.1
2016-10-17T18:28:18.212Z,25.8
2016-10-17T18:39:17.195Z,25.7
2016-10-17T18:50:17.167Z,25.1
2016-10-17T19:01:17.002Z,24.5
2016-10-17T19:12:16.928Z,25
2016-10-17T19:23:16.999Z,25
2016-10-17T19:34:17.341Z,24.8
2016-10-17T19:45:18.042Z,24.4
2016-10-17T19:56:17.969Z,23.8
2016-10-17T20:07:16.706Z,24
2016-10-17T20:18:17.419Z,23.9
2016-10-17T20:29:18.334Z,24.4
2016-10-17T20:40:17.032Z,24.3
2016-10-17T20:51:17.458Z,23.6
2016-10-17T21:02:17.458Z,23.7
2016-10-17T21:13:17.463Z,23.8
2016-10-17T21:24:17.837Z,24
2016-10-17T21:35:17.115Z,23.6
2016-10-17T21:46:18.073Z,23.1
2016-10-17T21:57:17.866Z,23.4
2016-10-17T22:08:17.830Z,23.8
2016-10-17T22:19:17.604Z,23.7
2016-10-17T22:30:17.919Z,23.5
2016-10-17T22:41:18.281Z,23.3
2016-10-17T22:52:17.647Z,23.3
2016-10-17T23:03:17.555Z,23.6
2016-10-17T23:14:16.828Z,23.4
2016-10-17T23:25:17.645Z,23.9
2016-10-17T23:36:19.062Z,24.2
2016-10-17T23:47:17.670Z,24.4
2016-10-17T23:58:19.212Z,24
